createdAt,value
2023-03-01T00:03:37.298Z,-1.13
2023-03-01T00:06:25.045Z,-1.48
2023-03-01T00:09:14.599Z,-1.43
2023-03-01T00:12:01.736Z,-1.07
2023-03-01T00:14:48.929Z,-1.19
2023-03-01T00:17:36.017Z,-1.18
2023-03-01T00:20:23.100Z,-1.28
2023-03-01T00:23:10.167Z,-1.21
2023-03-01T00:25:57.241Z,-1.20
2023-03-01T00:28:45.461Z,-1.17
2023-03-01T00:31:33.930Z,-1.19
2023-03-01T00:34:21.010Z,-1.25
2023-03-01T00:37:08.066Z,-1.25
2023-03-01T00:39:55.176Z,-1.30
2023-03-01T00:42:42.419Z,-1.15
2023-03-01T00:45:30.467Z,-1.20
2023-03-01T00:48:17.588Z,-1.24
2023-03-01T00:51:19.904Z,-1.23
2023-03-01T00:54:07.008Z,-1.31
2023-03-01T00:56:54.037Z,-1.38
2023-03-01T00:59:42.146Z,-1.31
2023-03-01T01:02:29.412Z,-1.37
2023-03-01T01:05:22.034Z,-1.31
2023-03-01T01:08:09.091Z,-1.28
2023-03-01T01:10:56.123Z,-1.28
2023-03-01T01:13:45.813Z,-1.29
2023-03-01T01:16:33.280Z,-1.45
2023-03-01T01:19:20.690Z,-1.41
2023-03-01T01:22:08.872Z,-1.49
2023-03-01T01:24:55.966Z,-1.49
2023-03-01T01:27:43.014Z,-1.50
2023-03-01T01:30:30.034Z,-1.53
2023-03-01T01:33:18.626Z,-1.48
2023-03-01T01:36:07.043Z,-1.52
2023-03-01T01:38:54.667Z,-1.79
2023-03-01T01:41:43.402Z,-1.86
2023-03-01T01:44:31.108Z,-1.98
2023-03-01T01:47:21.295Z,-2.03
2023-03-01T01:50:15.476Z,-2.07
2023-03-01T01:53:02.564Z,-2.18
2023-03-01T01:55:58.137Z,-2.13
2023-03-01T01:58:46.101Z,-2.11
2023-03-01T02:01:33.326Z,-1.99
2023-03-01T02:04:20.932Z,-1.83
2023-03-01T02:07:16.973Z,-1.76
2023-03-01T02:10:04.291Z,-1.80
2023-03-01T02:12:52.294Z,-1.87
2023-03-01T02:15:41.788Z,-1.76
2023-03-01T02:18:28.919Z,-1.84
2023-03-01T02:21:31.126Z,-1.77
2023-03-01T02:24:33.096Z,-1.89
2023-03-01T02:27:27.258Z,-1.92
2023-03-01T02:30:14.429Z,-1.96
2023-03-01T02:33:05.606Z,-1.80
2023-03-01T02:35:55.802Z,-1.97
2023-03-01T02:38:43.166Z,-1.97
2023-03-01T02:41:35.612Z,-2.03
2023-03-01T02:44:23.183Z,-2.04
2023-03-01T02:47:10.296Z,-2.08
2023-03-01T02:49:57.322Z,-2.09
2023-03-01T02:53:03.063Z,-2.16
2023-03-01T02:55:51.051Z,-2.25
2023-03-01T02:58:46.225Z,-2.40
2023-03-01T03:01:39.262Z,-2.26
2023-03-01T03:04:26.343Z,-2.13
2023-03-01T03:07:13.400Z,-2.11
2023-03-01T03:10:00.462Z,-2.15
2023-03-01T03:12:57.075Z,-2.09
2023-03-01T03:15:44.917Z,-2.12
2023-03-01T03:18:32.239Z,-2.14
2023-03-01T03:21:19.426Z,-2.22
2023-03-01T03:24:06.559Z,-2.28
2023-03-01T03:26:53.618Z,-2.38
2023-03-01T03:29:40.640Z,-2.53
2023-03-01T03:32:27.813Z,-2.54
2023-03-01T03:35:14.850Z,-2.57
2023-03-01T03:38:07.555Z,-2.48
2023-03-01T03:41:08.316Z,-2.54
2023-03-01T03:43:55.440Z,-2.59
2023-03-01T03:46:42.463Z,-2.50
2023-03-01T03:49:29.521Z,-2.50
2023-03-01T03:52:17.641Z,-2.44
2023-03-01T03:55:10.556Z,-2.50
2023-03-01T03:58:08.089Z,-2.55
2023-03-01T04:00:57.365Z,-2.52
2023-03-01T04:03:47.779Z,-2.54
2023-03-01T04:06:34.904Z,-2.68
2023-03-01T04:09:21.934Z,-2.85
2023-03-01T04:12:09.033Z,-2.67
2023-03-01T04:14:56.069Z,-2.69
2023-03-01T04:17:45.420Z,-2.69
2023-03-01T04:20:35.903Z,-2.40
2023-03-01T04:23:23.058Z,-2.31
2023-03-01T04:26:10.457Z,-2.24
2023-03-01T04:28:57.524Z,-2.32
2023-03-01T04:31:44.621Z,-2.20
2023-03-01T04:34:31.709Z,-2.19
2023-03-01T04:37:18.786Z,-2.26
2023-03-01T04:40:17.382Z,-2.12
2023-03-01T04:43:05.389Z,-2.08
2023-03-01T04:45:52.622Z,-2.09
2023-03-01T04:48:42.083Z,-2.10
2023-03-01T04:51:29.298Z,-2.18
2023-03-01T04:54:16.278Z,-2.11
2023-03-01T04:57:04.406Z,-2.18
2023-03-01T04:59:51.414Z,-2.09
2023-03-01T05:02:38.536Z,-2.03
2023-03-01T05:05:30.113Z,-1.86
2023-03-01T05:08:20.224Z,-1.93
2023-03-01T05:11:10.171Z,-1.91
2023-03-01T05:13:57.267Z,-1.89
2023-03-01T05:16:44.415Z,-2.04
2023-03-01T05:19:32.177Z,-1.89
2023-03-01T05:22:20.303Z,-1.99
2023-03-01T05:25:08.354Z,-1.94
2023-03-01T05:27:55.379Z,-1.91
2023-03-01T05:30:43.652Z,-1.94
2023-03-01T05:33:30.756Z,-2.09
2023-03-01T05:36:19.552Z,-2.20
2023-03-01T05:39:06.604Z,-2.35
2023-03-01T05:41:58.771Z,-2.44
2023-03-01T05:44:45.820Z,-2.59
2023-03-01T05:47:32.997Z,-2.53
2023-03-01T05:50:26.406Z,-2.53
2023-03-01T05:53:16.180Z,-2.68
2023-03-01T05:56:07.198Z,-2.87
2023-03-01T05:58:54.301Z,-2.64
2023-03-01T06:01:41.857Z,-2.74
2023-03-01T06:04:28.947Z,-2.59
2023-03-01T06:07:16.021Z,-2.40
2023-03-01T06:10:04.840Z,-2.24
2023-03-01T06:12:51.877Z,-2.17
2023-03-01T06:15:38.976Z,-2.20
2023-03-01T06:18:26.093Z,-2.04
2023-03-01T06:21:13.241Z,-1.97
2023-03-01T06:24:00.262Z,-1.90
2023-03-01T06:26:47.282Z,-1.83
2023-03-01T06:29:34.288Z,-1.83
2023-03-01T06:32:21.448Z,-1.74
2023-03-01T06:35:11.160Z,-1.54
2023-03-01T06:38:01.369Z,-1.52
2023-03-01T06:40:55.324Z,-1.50
2023-03-01T06:43:42.425Z,-1.42
2023-03-01T06:46:29.741Z,-1.39
2023-03-01T06:49:18.830Z,-1.39
2023-03-01T06:52:05.962Z,-1.37
2023-03-01T06:54:52.986Z,-1.44
2023-03-01T06:57:40.969Z,-1.41
2023-03-01T07:00:28.691Z,-1.37
2023-03-01T07:03:15.817Z,-1.28
2023-03-01T07:06:02.974Z,-1.32
2023-03-01T07:08:50.402Z,-1.28
2023-03-01T07:11:38.307Z,-1.25
2023-03-01T07:14:26.714Z,-1.25
2023-03-01T07:17:13.848Z,-1.20
2023-03-01T07:20:00.861Z,-1.14
2023-03-01T07:22:47.931Z,-1.00
2023-03-01T07:25:35.034Z,-0.99
2023-03-01T07:28:24.405Z,-0.94
2023-03-01T07:31:11.470Z,-0.93
2023-03-01T07:33:58.684Z,-0.81
2023-03-01T07:36:46.423Z,-0.77
2023-03-01T07:39:33.487Z,-0.76
2023-03-01T07:42:20.545Z,-0.58
2023-03-01T07:45:08.214Z,-0.52
2023-03-01T07:47:56.527Z,-0.51
2023-03-01T07:50:43.613Z,-0.37
2023-03-01T07:53:32.331Z,-0.36
2023-03-01T07:56:19.919Z,-0.30
2023-03-01T07:59:07.027Z,-0.22
2023-03-01T08:01:54.186Z,-0.08
2023-03-01T08:04:41.279Z,-0.05
2023-03-01T08:07:28.366Z,0.18
2023-03-01T08:10:15.550Z,0.29
2023-03-01T08:13:02.642Z,0.34
2023-03-01T08:15:50.429Z,0.35
2023-03-01T08:18:37.538Z,0.54
2023-03-01T08:21:24.630Z,0.83
2023-03-01T08:24:11.742Z,1.32
2023-03-01T08:26:58.918Z,1.75
2023-03-01T08:29:46.021Z,2.12
2023-03-01T08:32:37.643Z,2.36
2023-03-01T08:35:24.904Z,2.62
2023-03-01T08:38:11.980Z,2.70
2023-03-01T08:41:04.506Z,3.18
2023-03-01T08:43:52.029Z,3.21
2023-03-01T08:46:44.254Z,3.14
2023-03-01T08:49:31.382Z,3.28
2023-03-01T08:52:18.460Z,3.60
2023-03-01T08:55:08.773Z,3.38
2023-03-01T08:57:58.864Z,3.22
2023-03-01T09:00:45.944Z,3.48
2023-03-01T09:03:33.041Z,3.25
2023-03-01T09:06:20.545Z,3.50
2023-03-01T09:09:13.494Z,3.65
2023-03-01T09:12:00.626Z,3.76
2023-03-01T09:14:47.816Z,4.00
2023-03-01T09:17:40.586Z,4.02
2023-03-01T09:20:27.826Z,3.48
2023-03-01T09:23:16.836Z,3.37
2023-03-01T09:26:04.533Z,3.69
2023-03-01T09:28:54.834Z,4.01
2023-03-01T09:31:42.291Z,4.30
2023-03-01T09:34:29.503Z,4.46
2023-03-01T09:37:18.762Z,4.62
2023-03-01T09:40:07.981Z,4.73
2023-03-01T09:43:04.766Z,4.79
2023-03-01T09:45:56.481Z,4.91
2023-03-01T09:48:50.189Z,5.29
2023-03-01T09:51:38.190Z,5.05
2023-03-01T09:54:25.527Z,5.37
2023-03-01T09:57:31.219Z,5.80
2023-03-01T10:00:25.562Z,5.93
2023-03-01T10:03:33.193Z,5.79
2023-03-01T10:06:35.028Z,6.15
2023-03-01T10:09:22.713Z,6.43
2023-03-01T10:12:13.264Z,6.27
2023-03-01T10:15:16.637Z,6.22
2023-03-01T10:18:14.837Z,5.94
2023-03-01T10:21:17.973Z,6.19
2023-03-01T10:24:23.492Z,6.29
2023-03-01T10:27:20.520Z,6.03
2023-03-01T10:30:37.262Z,5.87
2023-03-01T10:33:24.373Z,5.89
2023-03-01T10:36:11.634Z,5.60
2023-03-01T10:38:59.250Z,5.63
2023-03-01T10:42:19.416Z,5.16
2023-03-01T10:45:18.356Z,5.29
2023-03-01T10:48:11.137Z,5.04
2023-03-01T10:51:01.288Z,5.16
2023-03-01T10:53:52.882Z,5.24
2023-03-01T10:57:02.209Z,5.05
2023-03-01T11:00:04.583Z,5.30
2023-03-01T11:03:13.446Z,5.39
2023-03-01T11:06:03.486Z,5.37
2023-03-01T11:08:51.743Z,5.71
2023-03-01T11:11:38.859Z,5.38
2023-03-01T11:14:29.503Z,5.64
2023-03-01T11:17:30.599Z,5.73
2023-03-01T11:20:32.142Z,5.71
2023-03-01T11:23:21.122Z,5.77
2023-03-01T11:26:12.428Z,5.64
2023-03-01T11:29:05.164Z,5.83
2023-03-01T11:31:57.799Z,5.83
2023-03-01T11:34:52.505Z,5.84
2023-03-01T11:37:56.617Z,5.67
2023-03-01T11:41:15.697Z,5.92
2023-03-01T11:44:15.080Z,5.98
2023-03-01T11:47:15.893Z,5.70
2023-03-01T11:50:16.809Z,5.92
2023-03-01T11:53:32.210Z,6.00
2023-03-01T11:56:27.496Z,6.21
2023-03-01T11:59:37.318Z,5.98
2023-03-01T12:02:58.064Z,6.21
2023-03-01T12:06:25.273Z,5.94
2023-03-01T12:09:40.231Z,5.89
2023-03-01T12:12:31.974Z,5.90
2023-03-01T12:15:45.365Z,5.95
2023-03-01T12:18:58.608Z,5.91
2023-03-01T12:21:59.965Z,6.05
2023-03-01T12:25:13.430Z,6.16
2023-03-01T12:28:26.800Z,6.04
2023-03-01T12:31:29.438Z,6.09
2023-03-01T12:35:01.383Z,6.19
2023-03-01T12:38:11.570Z,6.22
2023-03-01T12:41:16.805Z,6.29
2023-03-01T12:44:22.679Z,6.47
2023-03-01T12:47:15.770Z,6.35
2023-03-01T12:50:12.602Z,6.33
2023-03-01T12:52:59.762Z,6.49
2023-03-01T12:55:47.915Z,6.40
2023-03-01T12:59:00.450Z,6.47
2023-03-01T13:02:14.954Z,6.36
2023-03-01T13:05:03.928Z,6.43
2023-03-01T13:08:11.773Z,6.36
2023-03-01T13:11:05.416Z,6.39
2023-03-01T13:13:55.558Z,6.52
2023-03-01T13:16:46.142Z,6.56
2023-03-01T13:19:37.365Z,6.38
2023-03-01T13:22:31.491Z,6.36
2023-03-01T13:25:21.690Z,6.47
2023-03-01T13:28:43.483Z,6.50
2023-03-01T13:31:30.633Z,6.51
2023-03-01T13:34:47.413Z,6.64
2023-03-01T13:37:38.564Z,6.66
2023-03-01T13:40:25.624Z,6.74
2023-03-01T13:43:40.087Z,6.71
2023-03-01T13:46:27.263Z,6.75
2023-03-01T13:49:21.076Z,6.87
2023-03-01T13:53:06.397Z,6.95
2023-03-01T13:56:01.056Z,7.06
2023-03-01T13:58:53.571Z,7.04
2023-03-01T14:01:43.381Z,7.14
2023-03-01T14:04:36.828Z,7.20
2023-03-01T14:07:25.450Z,7.05
2023-03-01T14:10:13.925Z,7.11
2023-03-01T14:13:26.375Z,7.11
2023-03-01T14:16:25.385Z,7.02
2023-03-01T14:19:32.970Z,7.11
2023-03-01T14:22:30.116Z,7.04
2023-03-01T14:25:27.164Z,7.02
2023-03-01T14:28:25.448Z,7.08
2023-03-01T14:31:52.113Z,7.03
2023-03-01T14:34:51.405Z,7.18
2023-03-01T14:37:38.504Z,7.01
2023-03-01T14:40:35.625Z,6.89
2023-03-01T14:43:25.777Z,6.94
2023-03-01T14:46:23.457Z,6.97
2023-03-01T14:49:13.512Z,6.88
2023-03-01T14:52:04.749Z,6.74
2023-03-01T14:54:54.583Z,6.76
2023-03-01T14:57:45.431Z,6.77
2023-03-01T15:00:35.106Z,6.82
2023-03-01T15:03:29.736Z,6.78
2023-03-01T15:06:22.987Z,6.86
2023-03-01T15:09:17.545Z,6.74
2023-03-01T15:12:41.475Z,6.72
2023-03-01T15:15:35.901Z,6.57
2023-03-01T15:18:28.831Z,6.55
2023-03-01T15:21:39.969Z,6.52
2023-03-01T15:24:29.863Z,6.60
2023-03-01T15:27:22.924Z,6.40
2023-03-01T15:30:19.770Z,6.47
2023-03-01T15:33:28.339Z,6.24
2023-03-01T15:36:37.640Z,6.07
2023-03-01T15:39:55.402Z,5.80
2023-03-01T15:42:42.581Z,5.66
2023-03-01T15:45:35.137Z,5.64
2023-03-01T15:48:22.599Z,5.53
2023-03-01T15:51:15.117Z,5.46
2023-03-01T15:54:15.841Z,5.51
2023-03-01T15:57:03.039Z,5.41
2023-03-01T15:59:50.851Z,5.38
2023-03-01T16:02:39.034Z,5.42
2023-03-01T16:05:31.788Z,5.37
2023-03-01T16:08:20.145Z,5.27
2023-03-01T16:11:15.589Z,5.26
2023-03-01T16:14:02.902Z,5.22
2023-03-01T16:16:50.317Z,5.23
2023-03-01T16:19:39.699Z,5.16
2023-03-01T16:22:28.470Z,5.08
2023-03-01T16:25:19.107Z,4.97
2023-03-01T16:28:10.285Z,5.00
2023-03-01T16:30:57.570Z,4.91
2023-03-01T16:33:50.543Z,4.86
2023-03-01T16:36:38.004Z,4.72
2023-03-01T16:39:25.315Z,4.77
2023-03-01T16:42:21.892Z,4.71
2023-03-01T16:45:22.910Z,4.73
2023-03-01T16:48:11.658Z,4.57
2023-03-01T16:51:01.140Z,4.50
2023-03-01T16:53:48.532Z,4.51
2023-03-01T16:56:38.646Z,4.50
2023-03-01T16:59:25.733Z,4.47
2023-03-01T17:02:20.203Z,4.40
2023-03-01T17:05:10.071Z,4.28
2023-03-01T17:07:58.337Z,4.24
2023-03-01T17:10:46.086Z,4.11
2023-03-01T17:13:33.683Z,4.25
2023-03-01T17:16:22.241Z,4.21
2023-03-01T17:19:09.857Z,4.20
2023-03-01T17:21:57.260Z,4.13
2023-03-01T17:24:45.521Z,4.14
2023-03-01T17:27:36.036Z,3.97
2023-03-01T17:30:24.928Z,4.17
2023-03-01T17:33:13.984Z,4.11
2023-03-01T17:36:02.479Z,4.04
2023-03-01T17:38:50.744Z,3.92
2023-03-01T17:41:38.836Z,3.93
2023-03-01T17:44:26.866Z,3.93
2023-03-01T17:47:14.553Z,3.97
2023-03-01T17:50:02.602Z,3.93
2023-03-01T17:52:50.072Z,3.88
2023-03-01T17:55:38.531Z,3.95
2023-03-01T17:58:25.996Z,3.83
2023-03-01T18:01:16.406Z,3.88
2023-03-01T18:04:03.700Z,3.73
2023-03-01T18:06:50.827Z,3.83
2023-03-01T18:09:38.062Z,3.89
2023-03-01T18:12:25.530Z,3.66
2023-03-01T18:15:13.077Z,3.74
2023-03-01T18:18:04.858Z,3.76
2023-03-01T18:21:02.613Z,3.87
2023-03-01T18:23:50.225Z,3.75
2023-03-01T18:26:40.214Z,3.78
2023-03-01T18:29:28.963Z,3.87
2023-03-01T18:32:16.675Z,3.73
2023-03-01T18:35:04.479Z,3.59
2023-03-01T18:37:53.643Z,3.61
2023-03-01T18:40:43.755Z,3.66
2023-03-01T18:43:34.724Z,3.46
2023-03-01T18:46:23.326Z,3.25
2023-03-01T18:49:11.856Z,3.38
2023-03-01T18:52:00.129Z,3.32
2023-03-01T18:54:48.119Z,3.47
2023-03-01T18:57:37.981Z,3.62
2023-03-01T19:00:25.999Z,3.60
2023-03-01T19:03:13.774Z,3.61
2023-03-01T19:06:02.676Z,3.58
2023-03-01T19:08:51.404Z,3.68
2023-03-01T19:11:39.420Z,3.63
2023-03-01T19:14:27.764Z,3.64
2023-03-01T19:17:16.631Z,3.68
2023-03-01T19:20:06.256Z,3.62
2023-03-01T19:22:54.278Z,3.66
2023-03-01T19:25:42.466Z,3.67
2023-03-01T19:28:30.585Z,3.60
2023-03-01T19:31:24.845Z,3.75
2023-03-01T19:34:13.622Z,3.88
2023-03-01T19:37:03.898Z,3.83
2023-03-01T19:39:52.719Z,4.09
2023-03-01T19:42:41.261Z,4.15
2023-03-01T19:45:33.590Z,4.15
2023-03-01T19:48:22.567Z,4.06
2023-03-01T19:51:10.709Z,4.17
2023-03-01T19:53:59.999Z,4.25
2023-03-01T19:56:49.352Z,4.30
2023-03-01T19:59:37.862Z,4.28
2023-03-01T20:02:28.381Z,4.21
2023-03-01T20:05:17.288Z,4.29
2023-03-01T20:08:09.045Z,4.28
2023-03-01T20:11:05.369Z,4.15
2023-03-01T20:13:54.391Z,4.32
2023-03-01T20:16:43.016Z,4.29
2023-03-01T20:19:31.801Z,4.32
2023-03-01T20:22:22.293Z,4.18
2023-03-01T20:25:12.262Z,4.17
2023-03-01T20:28:00.368Z,4.08
2023-03-01T20:30:49.078Z,3.96
2023-03-01T20:33:38.253Z,3.99
2023-03-01T20:36:28.370Z,4.00
2023-03-01T20:39:16.308Z,4.01
2023-03-01T20:42:04.555Z,3.96
2023-03-01T20:44:52.464Z,4.04
2023-03-01T20:47:40.967Z,4.07
2023-03-01T20:50:30.789Z,4.03
2023-03-01T20:53:23.214Z,4.13
2023-03-01T20:56:16.303Z,4.14
2023-03-01T20:59:06.384Z,4.00
2023-03-01T21:01:53.787Z,3.98
2023-03-01T21:04:43.459Z,3.75
2023-03-01T21:07:30.902Z,3.65
2023-03-01T21:10:18.366Z,3.56
2023-03-01T21:13:06.037Z,3.41
2023-03-01T21:15:55.825Z,3.47
2023-03-01T21:18:43.407Z,3.48
2023-03-01T21:21:31.657Z,3.48
2023-03-01T21:24:19.024Z,3.34
2023-03-01T21:27:10.018Z,3.39
2023-03-01T21:29:57.594Z,3.43
2023-03-01T21:32:45.133Z,3.30
2023-03-01T21:35:32.630Z,3.36
2023-03-01T21:38:19.952Z,3.29
2023-03-01T21:41:13.504Z,3.30
2023-03-01T21:44:06.255Z,3.30
2023-03-01T21:46:54.017Z,3.30
2023-03-01T21:49:41.294Z,3.31
2023-03-01T21:52:28.554Z,3.32
2023-03-01T21:55:16.187Z,3.30
2023-03-01T21:58:03.636Z,3.36
2023-03-01T22:00:54.590Z,3.29
2023-03-01T22:03:47.546Z,3.19
2023-03-01T22:06:43.500Z,3.26
2023-03-01T22:09:32.104Z,3.09
2023-03-01T22:12:19.180Z,3.09
2023-03-01T22:15:06.913Z,2.89
2023-03-01T22:17:54.720Z,2.98
2023-03-01T22:20:42.163Z,3.01
2023-03-01T22:23:29.237Z,2.97
2023-03-01T22:26:40.360Z,2.69
2023-03-01T22:29:29.788Z,2.46
2023-03-01T22:32:16.988Z,2.27
2023-03-01T22:35:04.370Z,2.17
2023-03-01T22:37:51.872Z,2.17
2023-03-01T22:40:39.216Z,2.08
2023-03-01T22:43:28.242Z,2.35
2023-03-01T22:46:18.191Z,2.42
2023-03-01T22:49:05.520Z,2.43
2023-03-01T22:51:53.466Z,2.67
2023-03-01T22:54:40.625Z,2.81
2023-03-01T22:57:27.688Z,2.96
2023-03-01T23:00:15.035Z,3.02
2023-03-01T23:03:02.596Z,3.08
2023-03-01T23:05:49.770Z,3.08
2023-03-01T23:08:37.347Z,2.96
2023-03-01T23:11:25.763Z,2.88
2023-03-01T23:14:12.967Z,2.90
2023-03-01T23:17:01.773Z,2.91
2023-03-01T23:19:51.393Z,2.98
2023-03-01T23:22:38.442Z,2.90
2023-03-01T23:25:25.634Z,2.75
2023-03-01T23:28:12.668Z,2.77
2023-03-01T23:31:02.903Z,2.80
2023-03-01T23:33:49.846Z,2.84
2023-03-01T23:36:44.940Z,2.80
2023-03-01T23:39:32.644Z,2.72
2023-03-01T23:42:19.733Z,2.77
2023-03-01T23:45:07.852Z,2.85
2023-03-01T23:47:55.792Z,2.82
2023-03-01T23:50:42.943Z,2.81
2023-03-01T23:53:30.000Z,2.83
2023-03-01T23:56:17.051Z,2.76
2023-03-01T23:59:09.273Z,2.84
